Time;durP1;ratioP1;P1;durP2;ratioP2;P2;SDS_P1;SDS_P2;PMS_P1;PMS_P2;Temp;Humidity;BMP_temperature;BMP_pressure;BME280_temperature;BME280_humidity;BME280_pressure;Samples;Min_cycle;Max_cycle;Signal;HPM_P1;HPM_P2
2022/01/17 06:02:13;;;;;;;5.63;3.70;;;;;;;3.31;76.31;100021.88;5025708;28;106154;-74
2022/01/17 06:04:39;;;;;;;6.30;3.80;;;;;;;3.32;76.48;99994.59;5024318;28;106166;-69
2022/01/17 06:07:05;;;;;;;7.40;4.35;;;;;;;3.35;76.98;100007.47;5023883;28;106275;-68
2022/01/17 06:09:31;;;;;;;12.00;5.13;;;;;;;3.39;77.12;99995.72;5024153;27;105934;-68
2022/01/17 06:11:57;;;;;;;5.20;3.28;;;;;;;3.45;77.40;99952.25;5011177;27;105986;-65
2022/01/17 06:14:23;;;;;;;7.57;5.05;;;;;;;3.51;77.61;99969.31;5002871;28;106055;-66
2022/01/17 06:16:49;;;;;;;9.68;5.18;;;;;;;3.56;77.76;99981.13;5002987;28;106661;-70
2022/01/17 06:19:16;;;;;;;7.03;4.25;;;;;;;3.62;77.48;99953.41;5002700;28;106285;-63
2022/01/17 06:21:42;;;;;;;7.88;4.78;;;;;;;3.69;77.20;99951.97;5002129;28;105937;-67
2022/01/17 06:24:10;;;;;;;6.75;4.65;;;;;;;3.74;77.45;99941.00;5009778;28;106034;-73
2022/01/17 06:26:41;;;;;;;8.18;4.10;;;;;;;3.78;77.13;99933.69;5025216;28;106912;-72
2022/01/17 06:29:09;;;;;;;6.18;3.90;;;;;;;3.79;76.99;99938.81;5024559;28;105894;-69
2022/01/17 06:31:35;;;;;;;10.65;5.22;;;;;;;3.82;76.65;99935.09;5024944;27;106034;-73
2022/01/17 06:34:02;;;;;;;8.18;4.65;;;;;;;3.87;76.64;99948.72;5025531;27;105998;-72
2022/01/17 06:36:27;;;;;;;7.38;4.38;;;;;;;3.89;76.47;99923.03;5024951;28;106156;-69
2022/01/17 06:38:53;;;;;;;6.95;4.18;;;;;;;3.93;76.61;99937.63;5024394;27;106033;-71
2022/01/17 06:41:18;;;;;;;6.22;3.78;;;;;;;3.96;75.99;99934.69;5023955;27;106015;-73
2022/01/17 06:43:45;;;;;;;11.13;3.92;;;;;;;4.00;76.12;99949.28;5025441;28;106569;-73
2022/01/17 06:46:10;;;;;;;11.63;5.88;;;;;;;4.01;75.72;99923.78;5023592;28;106233;-72
2022/01/17 06:48:36;;;;;;;5.45;3.92;;;;;;;4.01;75.13;99903.50;5024428;28;106156;-71
2022/01/17 06:51:02;;;;;;;8.20;4.55;;;;;;;4.01;75.43;99890.34;5024375;27;105893;-74
2022/01/17 06:53:28;;;;;;;7.97;5.07;;;;;;;4.00;75.16;99853.56;5025401;27;105932;-71
2022/01/17 06:55:54;;;;;;;8.15;5.43;;;;;;;3.97;75.15;99832.75;5024409;27;106116;-70
2022/01/17 06:58:20;;;;;;;7.40;4.15;;;;;;;3.95;75.35;99822.38;5024366;27;106585;-71
2022/01/17 07:00:46;;;;;;;8.15;4.57;;;;;;;3.96;75.27;99828.47;5032271;27;106054;-70
2022/01/17 07:03:11;;;;;;;8.57;5.03;;;;;;;3.97;75.25;99838.03;5045195;27;106017;-71
2022/01/17 07:05:36;;;;;;;7.50;4.00;;;;;;;4.03;74.84;99822.50;5043178;27;105998;-73
2022/01/17 07:08:02;;;;;;;7.40;4.15;;;;;;;4.06;75.17;99839.88;5043977;27;106282;-67
2022/01/17 07:10:28;;;;;;;7.15;3.83;;;;;;;4.07;74.89;99837.09;5043806;27;106454;-73
2022/01/17 07:12:54;;;;;;;6.65;3.97;;;;;;;4.10;75.15;99867.63;5034374;27;106119;-70
2022/01/17 07:15:20;;;;;;;7.45;3.60;;;;;;;4.16;74.67;99858.31;5030638;27;106140;-74
2022/01/17 07:17:45;;;;;;;6.13;3.70;;;;;;;4.17;74.58;99873.16;5030434;27;105972;-72
2022/01/17 07:20:11;;;;;;;6.82;3.55;;;;;;;4.19;74.79;99869.41;5026570;27;106076;-68
2022/01/17 07:22:36;;;;;;;10.52;3.97;;;;;;;4.22;74.75;99898.16;5011927;28;105932;-73
2022/01/17 07:25:03;;;;;;;6.07;3.30;;;;;;;4.27;74.14;99892.47;5011487;28;106043;-70
2022/01/17 07:27:29;;;;;;;5.28;3.25;;;;;;;4.29;74.21;99866.81;5011906;27;105737;-68
2022/01/17 07:29:55;;;;;;;3.75;2.88;;;;;;;4.31;74.12;99882.50;5018586;28;105905;-65
2022/01/17 07:32:20;;;;;;;4.50;2.72;;;;;;;4.32;73.76;99870.94;5020677;27;106024;-66
2022/01/17 07:34:46;;;;;;;7.57;4.15;;;;;;;4.31;73.88;99864.84;5020474;28;106651;-70
2022/01/17 07:37:11;;;;;;;4.88;2.95;;;;;;;4.31;73.91;99817.38;5018599;28;106580;-75
2022/01/17 07:39:37;;;;;;;7.88;4.35;;;;;;;4.31;73.86;99772.56;5017711;27;106067;-70
2022/01/17 07:42:02;;;;;;;6.40;2.80;;;;;;;4.30;73.77;99767.41;5010979;28;105999;-71
2022/01/17 07:44:30;;;;;;;5.80;2.45;;;;;;;4.33;73.82;99791.72;5010226;28;106542;-64
2022/01/17 07:46:58;;;;;;;5.70;3.05;;;;;;;4.31;73.64;99792.81;5009790;28;106342;-64
2022/01/17 07:49:25;;;;;;;3.80;2.50;;;;;;;4.32;73.53;99794.47;5017737;28;105886;-70
2022/01/17 07:51:56;;;;;;;4.70;2.03;;;;;;;4.33;73.13;99770.63;5025071;27;106104;-67
2022/01/17 07:54:23;;;;;;;3.80;2.40;;;;;;;4.34;73.40;99782.00;5030129;27;106286;-68
2022/01/17 07:56:48;;;;;;;3.50;1.70;;;;;;;4.35;73.19;99812.69;5020553;27;106331;-67
2022/01/17 07:59:14;;;;;;;4.00;2.30;;;;;;;4.33;73.19;99788.22;5018451;27;106039;-69
2022/01/17 08:01:40;;;;;;;4.43;1.77;;;;;;;4.30;73.17;99791.97;5011012;28;106144;-68
2022/01/17 08:04:06;;;;;;;3.90;1.60;;;;;;;4.28;73.54;99756.16;5010215;28;106136;-72
2022/01/17 08:06:38;;;;;;;4.70;1.70;;;;;;;4.22;73.36;99761.06;5009452;28;106336;-68
2022/01/17 08:09:06;;;;;;;2.70;1.45;;;;;;;4.20;73.23;99764.78;5008173;28;107259;-67
2022/01/17 08:11:32;;;;;;;6.63;1.88;;;;;;;4.16;73.65;99758.97;5009842;28;105928;-70
2022/01/17 08:13:57;;;;;;;3.90;2.38;;;;;;;4.16;73.37;99700.13;5009962;28;105939;-68
2022/01/17 08:16:23;;;;;;;5.97;2.03;;;;;;;4.14;73.31;99720.53;5009066;28;106079;-68
2022/01/17 08:18:49;;;;;;;2.95;1.85;;;;;;;4.12;73.68;99740.94;5009403;28;106055;-73
2022/01/17 08:21:14;;;;;;;3.22;1.52;;;;;;;4.10;73.72;99733.16;5009954;28;106119;-73
2022/01/17 08:23:40;;;;;;;4.00;2.00;;;;;;;4.08;74.00;99729.81;5008489;28;105857;-66
2022/01/17 08:26:05;;;;;;;2.72;1.75;;;;;;;4.06;73.84;99773.97;5008884;28;105854;-73
2022/01/17 08:28:30;;;;;;;4.43;1.75;;;;;;;4.04;74.35;99770.63;5009288;28;107050;-69
2022/01/17 08:30:56;;;;;;;10.60;1.77;;;;;;;4.06;74.31;99727.34;5009435;28;105807;-69
2022/01/17 08:33:22;;;;;;;5.40;2.10;;;;;;;4.05;74.48;99733.56;5016535;28;106211;-70
2022/01/17 08:35:48;;;;;;;5.35;2.33;;;;;;;4.04;74.76;99760.91;5017641;27;105722;-68
2022/01/17 08:38:13;;;;;;;2.78;1.58;;;;;;;4.06;74.56;99710.69;5018986;27;105854;-68
2022/01/17 08:40:39;;;;;;;3.00;1.92;;;;;;;4.09;75.00;99720.09;5018698;28;105972;-68
2022/01/17 08:43:04;;;;;;;2.58;1.70;;;;;;;4.08;74.88;99706.09;5017465;27;106214;-67
2022/01/17 08:45:29;;;;;;;4.45;1.52;;;;;;;4.04;74.60;99699.44;5025368;28;106644;-69
2022/01/17 08:47:55;;;;;;;4.47;1.50;;;;;;;3.99;74.83;99697.25;5028816;27;106087;-73
2022/01/17 08:50:22;;;;;;;2.42;1.30;;;;;;;3.97;74.99;99687.81;5023326;27;106471;-72
2022/01/17 08:52:48;;;;;;;1.80;1.20;;;;;;;4.03;75.23;99693.34;5018031;27;106170;-69
2022/01/17 08:55:15;;;;;;;2.50;0.77;;;;;;;4.07;75.61;99657.84;5019036;28;106055;-70
2022/01/17 08:57:41;;;;;;;3.22;1.10;;;;;;;4.16;75.31;99650.03;5020367;28;106265;-68
2022/01/17 09:00:11;;;;;;;0.88;0.80;;;;;;;4.19;75.14;99653.22;5010373;28;106012;-66
2022/01/17 09:02:37;;;;;;;0.70;0.70;;;;;;;4.22;75.15;99673.19;5028751;28;106028;-70
2022/01/17 09:05:03;;;;;;;2.25;0.90;;;;;;;4.22;75.00;99666.13;5028521;27;106134;-66
2022/01/17 09:07:28;;;;;;;6.00;2.42;;;;;;;4.20;74.88;99685.69;5028665;28;106482;-64
2022/01/17 09:09:54;;;;;;;1.73;0.98;;;;;;;4.20;75.42;99690.97;5026408;27;106054;-74
2022/01/17 09:12:19;;;;;;;1.85;1.20;;;;;;;4.21;75.37;99671.53;5017922;28;106213;-74
2022/01/17 09:14:44;;;;;;;4.03;1.25;;;;;;;4.22;74.97;99684.59;5018610;28;106574;-73
2022/01/17 09:17:12;;;;;;;1.15;0.82;;;;;;;4.21;75.28;99703.16;5026889;28;112573;-67
2022/01/17 09:19:40;;;;;;;3.35;1.95;;;;;;;4.22;75.25;99702.19;5028998;27;105980;-74
2022/01/17 09:22:07;;;;;;;1.38;0.85;;;;;;;4.27;75.08;99701.78;5027947;27;106479;-73
2022/01/17 09:24:33;;;;;;;2.33;1.48;;;;;;;4.28;75.23;99696.38;5028115;28;106103;-75
2022/01/17 09:26:59;;;;;;;3.00;1.00;;;;;;;4.33;75.07;99701.22;5028049;27;106186;-72
2022/01/17 09:29:24;;;;;;;4.65;1.48;;;;;;;4.33;74.93;99691.50;5029124;27;105993;-67
2022/01/17 09:31:49;;;;;;;2.80;0.95;;;;;;;4.36;74.97;99678.03;5028565;27;106167;-68
2022/01/17 09:34:15;;;;;;;2.40;0.95;;;;;;;4.36;74.56;99704.41;5028215;27;107335;-71
2022/01/17 09:36:40;;;;;;;1.75;0.93;;;;;;;4.36;75.17;99670.13;5027586;27;106123;-72
2022/01/17 09:39:07;;;;;;;2.38;1.25;;;;;;;4.37;74.87;99698.16;5028740;27;105889;-73
2022/01/17 09:41:33;;;;;;;2.88;1.15;;;;;;;4.43;75.01;99694.13;5028354;27;106213;-70
2022/01/17 09:43:59;;;;;;;2.25;1.10;;;;;;;4.46;74.88;99656.91;5023160;28;107055;-70
2022/01/17 09:46:32;;;;;;;2.42;1.13;;;;;;;4.50;74.54;99689.09;5016982;27;106058;-66
2022/01/17 09:49:12;;;;;;;2.42;1.08;;;;;;;4.54;74.59;99645.63;5023997;28;105837;-67
2022/01/17 09:52:03;;;;;;;4.05;1.50;;;;;;;4.55;74.61;99671.88;5025452;27;106015;-74
2022/01/17 09:54:30;;;;;;;3.08;1.10;;;;;;;4.59;74.54;99643.38;5018313;28;106648;-70
2022/01/17 09:56:57;;;;;;;3.42;1.50;;;;;;;4.63;74.58;99659.75;5013037;28;106015;-69
2022/01/17 09:59:23;;;;;;;3.65;0.93;;;;;;;4.68;74.80;99657.53;5014008;28;106117;-71
2022/01/17 10:01:48;;;;;;;4.35;1.25;;;;;;;4.73;74.30;99648.19;5024812;28;106310;-77
2022/01/17 10:04:16;;;;;;;2.72;1.25;;;;;;;4.74;74.20;99628.75;5028245;28;106593;-69
2022/01/17 10:06:43;;;;;;;1.40;0.85;;;;;;;4.75;74.23;99633.03;5027442;27;106005;-72
2022/01/17 10:09:13;;;;;;;2.53;0.80;;;;;;;4.77;73.85;99650.53;5028599;27;105803;-68
2022/01/17 10:12:15;;;;;;;4.95;1.20;;;;;;;4.82;74.38;99628.00;5027813;27;106243;-69
2022/01/17 10:14:58;;;;;;;3.70;1.25;;;;;;;4.94;74.20;99614.63;5027187;27;105882;-75
2022/01/17 10:17:40;;;;;;;2.72;1.08;;;;;;;5.01;73.91;99627.06;5027445;27;105949;-68
2022/01/17 10:20:07;;;;;;;2.67;1.40;;;;;;;5.03;73.93;99588.16;5028520;27;105997;-66
2022/01/17 10:22:43;;;;;;;3.08;1.30;;;;;;;5.06;73.62;99587.84;5027669;28;106277;-68
2022/01/17 10:25:23;;;;;;;2.22;1.13;;;;;;;5.08;73.13;99601.75;5021117;27;106053;-70
2022/01/17 10:28:17;;;;;;;0.50;0.50;;;;;;;5.17;73.53;99600.00;5017427;28;106214;-68
2022/01/17 10:30:52;;;;;;;1.98;0.80;;;;;;;5.19;73.21;99598.03;5016928;27;106204;-65
2022/01/17 10:36:01;;;;;;;1.42;0.85;;;;;;;5.14;72.94;99602.09;5016962;28;106396;-67
2022/01/17 10:38:27;;;;;;;0.73;0.68;;;;;;;5.12;73.28;99612.00;5016610;27;105920;-62
2022/01/17 10:40:59;;;;;;;1.02;0.77;;;;;;;5.12;73.04;99590.88;5017568;27;106022;-71
2022/01/17 10:43:38;;;;;;;0.70;0.70;;;;;;;5.08;73.21;99612.31;5025808;28;106240;-70
2022/01/17 10:46:11;;;;;;;2.08;0.80;;;;;;;5.04;73.26;99632.06;5017831;27;106173;-71
2022/01/17 10:48:42;;;;;;;3.10;1.00;;;;;;;5.01;73.56;99602.47;5020989;27;106208;-70
2022/01/17 10:51:08;;;;;;;;;;;;;;;4.97;73.56;99598.47;5024392;27;105992;-69
2022/01/17 10:53:33;;;;;;;2.58;1.05;;;;;;;4.96;73.79;99571.25;5018731;28;106205;-72
2022/01/17 10:56:07;;;;;;;1.77;0.90;;;;;;;5.02;73.73;99575.09;5017720;27;106012;-69
2022/01/17 10:58:35;;;;;;;2.25;1.00;;;;;;;5.00;73.94;99585.81;5019415;28;106364;-69
2022/01/17 11:01:04;;;;;;;3.25;1.13;;;;;;;4.96;73.69;99578.34;5026346;28;107226;-69
2022/01/17 11:03:34;;;;;;;3.20;1.17;;;;;;;4.92;74.16;99593.63;5030388;28;106105;-72
2022/01/17 11:06:10;;;;;;;1.27;0.90;;;;;;;4.90;74.14;99571.84;5022431;27;107458;-72
2022/01/17 11:08:36;;;;;;;2.15;0.80;;;;;;;4.89;74.39;99541.16;5019003;28;106034;-71
2022/01/17 11:11:07;;;;;;;3.03;1.23;;;;;;;4.93;74.70;99586.56;5020462;27;106473;-70
2022/01/17 11:13:33;;;;;;;;;;;;;;;4.91;74.54;99628.94;5021788;28;106386;-75
2022/01/17 11:16:11;;;;;;;3.40;1.40;;;;;;;4.87;74.57;99801.78;5020807;28;106599;-76
2022/01/17 11:18:40;;;;;;;3.60;1.30;;;;;;;4.78;74.17;99858.03;5020498;28;105912;-71
2022/01/17 11:21:13;;;;;;;2.45;0.90;;;;;;;4.33;73.05;99844.47;5016545;28;106455;-72
2022/01/17 11:23:41;;;;;;;1.60;0.80;;;;;;;3.81;72.34;99875.44;5019472;28;106142;-73
2022/01/17 11:26:07;;;;;;;1.42;0.85;;;;;;;3.41;73.13;99871.81;5021401;28;106081;-71
2022/01/17 11:28:34;;;;;;;2.50;1.25;;;;;;;3.15;73.35;99872.25;5016883;27;106097;-69
2022/01/17 11:31:05;;;;;;;4.35;1.65;;;;;;;2.96;74.08;99887.94;5024915;28;106315;-69
2022/01/17 11:33:30;;;;;;;4.55;3.05;;;;;;;2.81;74.60;99893.50;5029759;28;106060;-68
2022/01/17 11:35:56;;;;;;;7.80;2.83;;;;;;;2.69;74.54;99895.38;5029953;27;105818;-71
2022/01/17 11:38:25;;;;;;;4.03;2.60;;;;;;;2.61;74.71;99913.56;5030132;27;106039;-68
2022/01/17 11:40:51;;;;;;;5.20;2.25;;;;;;;2.52;74.48;99909.06;5030689;27;106127;-74
2022/01/17 11:43:34;;;;;;;4.60;1.90;;;;;;;2.44;74.88;99933.34;5029643;27;106163;-69
2022/01/17 11:46:20;;;;;;;4.18;2.28;;;;;;;2.33;74.92;99939.47;5029844;27;106014;-73
2022/01/17 11:49:06;;;;;;;3.65;1.40;;;;;;;2.33;74.86;99936.00;5015132;28;106443;-77
2022/01/17 11:51:40;;;;;;;3.97;2.08;;;;;;;2.32;75.20;99937.81;5030285;27;105929;-66
2022/01/17 11:54:20;;;;;;;2.40;1.17;;;;;;;2.32;75.24;99923.81;5030130;28;105830;-70
2022/01/17 11:56:51;;;;;;;1.98;1.33;;;;;;;2.32;75.44;99906.28;5029660;27;107059;-71
2022/01/17 11:59:48;;;;;;;3.50;1.50;;;;;;;2.34;75.75;99917.47;5028954;27;106104;-70
2022/01/17 12:02:33;;;;;;;8.02;3.63;;;;;;;2.46;75.87;99946.34;5030359;28;105886;-68
2022/01/17 12:05:07;;;;;;;7.47;4.95;;;;;;;2.63;75.82;99958.97;5029494;27;106734;-73
2022/01/17 12:07:44;;;;;;;6.78;4.70;;;;;;;2.71;75.76;99976.78;5027967;28;106162;-72
2022/01/17 12:10:14;;;;;;;10.77;4.93;;;;;;;2.74;75.65;99975.69;5029551;28;105979;-72
2022/01/17 12:12:39;;;;;;;10.10;5.50;;;;;;;2.74;75.25;99986.22;5030080;27;105747;-72
2022/01/17 12:15:13;;;;;;;7.60;5.28;;;;;;;2.69;75.27;100003.22;5029753;27;105818;-73
2022/01/17 12:17:39;;;;;;;7.03;3.85;;;;;;;2.71;74.99;100001.28;5029584;28;105980;-74
2022/01/17 12:20:04;;;;;;;7.22;3.20;;;;;;;2.75;75.43;99980.84;5022451;27;105807;-73
2022/01/17 12:22:54;;;;;;;4.72;2.10;;;;;;;2.77;75.05;99976.25;5009590;28;106106;-75
2022/01/17 12:25:24;;;;;;;5.80;3.50;;;;;;;2.83;75.60;99969.66;5009137;28;105907;-75
2022/01/17 12:27:50;;;;;;;5.57;2.28;;;;;;;2.89;75.11;99974.44;5008351;28;106228;-74
2022/01/17 12:30:17;;;;;;;2.90;1.67;;;;;;;2.96;75.43;99972.97;5007329;28;107239;-70
2022/01/17 12:32:48;;;;;;;4.15;1.60;;;;;;;3.02;75.34;99954.06;5009287;28;106053;-71
2022/01/17 12:35:23;;;;;;;3.30;1.73;;;;;;;3.08;74.86;99957.16;5009245;28;105892;-71
2022/01/17 12:37:50;;;;;;;4.88;1.83;;;;;;;3.08;75.25;99965.03;5008572;28;106239;-73
2022/01/17 12:40:15;;;;;;;4.93;1.70;;;;;;;3.09;75.43;99980.69;5008508;28;108128;-73
2022/01/17 12:43:01;;;;;;;5.68;1.95;;;;;;;3.11;75.58;99999.00;5009413;28;105964;-73
2022/01/17 12:45:43;;;;;;;3.30;1.50;;;;;;;3.14;75.05;100004.00;5009067;28;106005;-71
2022/01/17 12:48:14;;;;;;;4.75;1.88;;;;;;;3.18;75.49;100022.03;5008616;28;105915;-65
2022/01/17 12:50:42;;;;;;;4.55;1.48;;;;;;;3.18;75.56;100000.97;5008284;28;106026;-70
2022/01/17 12:53:10;;;;;;;4.03;1.85;;;;;;;3.22;74.90;100007.66;5009310;28;105956;-66
2022/01/17 12:55:54;;;;;;;3.45;1.50;;;;;;;3.21;75.08;100010.41;5009121;28;105885;-63
2022/01/17 12:58:24;;;;;;;2.78;1.20;;;;;;;3.17;74.80;100007.22;5008607;28;106119;-70
2022/01/17 13:00:54;;;;;;;2.97;1.58;;;;;;;3.14;74.73;100014.53;5008104;28;105955;-74
2022/01/17 13:03:22;;;;;;;2.85;1.50;;;;;;;3.18;74.78;100010.69;5009423;28;105933;-67
2022/01/17 13:05:48;;;;;;;2.55;0.95;;;;;;;3.28;75.00;100003.69;5009060;28;106302;-72
2022/01/17 13:08:14;;;;;;;4.85;1.80;;;;;;;3.27;74.74;100025.72;5008659;28;105892;-72
2022/01/17 13:10:41;;;;;;;5.40;1.45;;;;;;;3.28;74.58;100052.88;5007456;28;106118;-70
2022/01/17 13:13:15;;;;;;;3.05;1.40;;;;;;;3.29;74.23;100051.91;5009156;28;105938;-75
2022/01/17 13:15:53;;;;;;;6.57;1.40;;;;;;;3.26;74.22;100060.91;5007240;28;106591;-77
2022/01/17 13:18:19;;;;;;;5.15;1.90;;;;;;;3.30;74.56;100067.59;5008295;28;105955;-72
2022/01/17 13:20:44;;;;;;;4.38;1.48;;;;;;;3.42;74.63;100078.06;5007705;28;106106;-73
2022/01/17 13:23:14;;;;;;;3.45;1.50;;;;;;;3.42;74.17;100075.44;5008832;28;105925;-71
2022/01/17 13:25:40;;;;;;;6.22;1.65;;;;;;;3.39;73.68;100087.06;5009424;28;106275;-74
2022/01/17 13:28:06;;;;;;;4.50;1.23;;;;;;;4.05;74.53;100099.97;5006496;28;106900;-78
2022/01/17 13:30:35;;;;;;;5.82;1.48;;;;;;;5.02;74.20;100096.03;5008172;28;105998;-76
2022/01/17 13:33:11;;;;;;;8.88;1.98;;;;;;;8.02;77.02;100099.47;5008729;28;105902;-79
2022/01/17 13:35:43;;;;;;;4.70;1.48;;;;;;;11.89;75.71;100124.91;5008262;28;105955;-72
2022/01/17 13:38:22;;;;;;;5.10;1.52;;;;;;;14.52;66.77;100141.00;5007765;28;106032;-79
2022/01/17 13:40:52;;;;;;;1.70;0.80;;;;;;;16.32;61.06;100129.88;5007417;28;106154;-73
2022/01/17 13:43:18;;;;;;;4.07;1.27;;;;;;;17.62;59.29;100127.25;5008445;28;105888;-75
2022/01/17 13:45:49;;;;;;;5.20;1.52;;;;;;;18.63;55.76;100132.56;5007877;28;106214;-72
2022/01/17 13:48:17;;;;;;;6.90;2.13;;;;;;;19.33;52.73;100137.53;5008391;28;105921;-70
2022/01/17 13:50:51;;;;;;;4.35;1.50;;;;;;;20.15;50.16;100132.53;5007579;28;105769;-71
2022/01/17 13:53:18;;;;;;;5.88;1.67;;;;;;;20.54;48.01;100139.09;5008169;28;106066;-73
2022/01/17 13:55:45;;;;;;;5.25;1.63;;;;;;;20.85;46.78;100144.38;5007327;28;105948;-72
2022/01/17 13:58:13;;;;;;;4.13;1.80;;;;;;;21.20;46.20;100143.44;5007767;28;106701;-68
2022/01/17 14:00:41;;;;;;;6.40;1.67;;;;;;;21.31;43.19;100148.00;5019532;27;106252;-70
2022/01/17 14:03:07;;;;;;;3.22;1.50;;;;;;;21.24;41.64;100174.38;5027197;27;106057;-71
2022/01/17 14:05:54;;;;;;;4.47;1.88;;;;;;;21.42;40.84;100178.78;5035682;27;106317;-75
2022/01/17 14:08:25;;;;;;;9.20;1.88;;;;;;;21.26;39.07;100200.19;5043665;27;107344;-70
2022/01/17 14:10:58;;;;;;;2.25;1.23;;;;;;;20.99;37.67;100190.97;5033129;27;106321;-71
2022/01/17 14:13:26;;;;;;;3.95;1.40;;;;;;;20.65;37.28;100196.97;5037203;27;106024;-71
2022/01/17 14:15:53;;;;;;;4.82;1.50;;;;;;;20.38;36.08;100208.28;5042358;27;106141;-74
2022/01/17 14:18:19;;;;;;;3.05;1.15;;;;;;;20.35;36.25;100213.34;5030780;27;106047;-72
2022/01/17 14:20:54;;;;;;;4.97;1.48;;;;;;;20.57;35.07;100211.72;5042155;27;106009;-76
2022/01/17 14:23:27;;;;;;;4.88;1.70;;;;;;;19.72;34.32;100210.13;5041319;27;106002;-75
2022/01/17 14:25:52;;;;;;;5.95;1.60;;;;;;;19.37;34.17;100218.91;5036782;27;105848;-77
2022/01/17 14:28:19;;;;;;;4.60;1.60;;;;;;;19.16;34.25;100207.56;5047258;27;106643;-74
2022/01/17 14:30:44;;;;;;;4.88;1.25;;;;;;;19.05;33.78;100221.81;5035117;27;106300;-73
2022/01/17 14:33:17;;;;;;;3.58;1.45;;;;;;;18.69;32.88;100218.84;5041634;27;106402;-70
2022/01/17 14:36:00;;;;;;;5.88;1.65;;;;;;;17.83;32.71;100225.75;5044415;27;106193;-74
2022/01/17 14:38:25;;;;;;;3.72;1.50;;;;;;;16.75;33.71;100236.09;5034014;27;106110;-71
2022/01/17 14:40:51;;;;;;;3.88;1.67;;;;;;;15.95;34.22;100249.56;5044775;27;108861;-74
2022/01/17 14:43:16;;;;;;;3.22;1.33;;;;;;;15.32;34.80;100280.09;5041387;27;105990;-71
2022/01/17 14:45:49;;;;;;;4.70;1.42;;;;;;;14.87;34.56;100273.25;5038053;27;106308;-69
2022/01/17 14:48:15;;;;;;;5.07;1.58;;;;;;;14.48;34.78;100284.50;5047815;27;106337;-74
2022/01/17 14:50:40;;;;;;;3.80;1.27;;;;;;;14.13;34.60;100282.50;5034433;27;106617;-73
2022/01/17 14:53:17;;;;;;;3.03;1.63;;;;;;;13.26;35.24;100302.91;5043515;27;105996;-71
2022/01/17 15:01:00;;;;;;;3.58;1.35;;;;;;;9.78;39.00;100343.63;5042975;27;106033;-74
2022/01/17 15:03:30;;;;;;;4.35;1.52;;;;;;;9.19;39.81;100348.84;5042206;27;105996;-75
2022/01/17 15:05:56;;;;;;;4.57;1.60;;;;;;;8.25;40.53;100367.00;5035407;27;106437;-73
2022/01/17 15:08:21;;;;;;;4.90;1.60;;;;;;;7.07;41.92;100379.97;5046944;27;105946;-70
2022/01/17 15:10:48;;;;;;;3.90;1.38;;;;;;;6.14;43.05;100377.75;5029578;28;106398;-68
2022/01/17 15:13:13;;;;;;;4.68;1.48;;;;;;;5.37;44.48;100384.44;5039447;27;106024;-73
2022/01/17 15:15:44;;;;;;;4.50;1.35;;;;;;;4.78;45.58;100401.72;5030387;27;106516;-69
2022/01/17 15:18:13;;;;;;;7.18;2.50;;;;;;;4.28;45.90;100410.16;5046950;27;105772;-78
2022/01/17 15:20:41;;;;;;;5.47;1.65;;;;;;;3.89;46.82;100418.53;5029397;28;106069;-67
2022/01/17 15:23:07;;;;;;;6.68;2.10;;;;;;;3.52;47.39;100437.22;5030400;27;105946;-66
2022/01/17 15:25:32;;;;;;;2.58;1.23;;;;;;;3.22;48.37;100451.75;5030588;28;106376;-71
2022/01/17 15:27:58;;;;;;;3.97;1.40;;;;;;;2.95;48.58;100455.50;5029902;28;105908;-75
2022/01/17 15:30:24;;;;;;;4.18;1.70;;;;;;;2.72;49.41;100462.50;5029941;27;105842;-75
2022/01/17 15:32:51;;;;;;;6.68;1.67;;;;;;;2.53;49.75;100470.88;5030126;27;106067;-68
2022/01/17 15:35:18;;;;;;;5.65;1.88;;;;;;;2.32;50.22;100465.38;5030122;27;106269;-65
2022/01/17 15:37:44;;;;;;;5.10;2.03;;;;;;;2.14;50.42;100467.53;5029760;27;106790;-69
2022/01/17 15:40:10;;;;;;;3.60;2.13;;;;;;;2.00;51.35;100477.22;5030220;27;106309;-74
2022/01/17 15:42:36;;;;;;;6.70;1.17;;;;;;;1.86;52.13;100487.88;5030382;27;106023;-63
2022/01/17 15:45:01;;;;;;;5.53;1.55;;;;;;;1.75;51.78;100495.63;5030044;28;106167;-67
2022/01/17 15:47:26;;;;;;;5.25;1.88;;;;;;;1.60;52.27;100506.28;5029269;27;105966;-63
2022/01/17 15:49:52;;;;;;;4.55;1.55;;;;;;;1.48;52.69;100520.22;5029673;27;106743;-70
2022/01/17 15:52:17;;;;;;;2.10;1.40;;;;;;;1.42;53.45;100520.63;5030551;27;105854;-67
2022/01/17 15:54:44;;;;;;;5.22;2.38;;;;;;;1.33;53.59;100529.97;5029787;27;106211;-62
2022/01/17 15:57:11;;;;;;;6.80;2.00;;;;;;;1.25;53.93;100545.38;5029695;27;106131;-66
2022/01/17 15:59:41;;;;;;;4.82;2.17;;;;;;;1.17;54.55;100543.25;5029881;27;106044;-67
2022/01/17 16:02:08;;;;;;;5.93;2.30;;;;;;;1.08;54.55;100552.59;5030164;27;106079;-62
2022/01/17 16:04:34;;;;;;;5.13;2.25;;;;;;;1.02;55.10;100573.97;5030196;28;105913;-65
2022/01/17 16:06:59;;;;;;;5.78;2.03;;;;;;;0.97;55.65;100576.91;5029533;27;107235;-64
2022/01/17 16:09:25;;;;;;;5.95;2.33;;;;;;;0.93;55.65;100579.78;5027267;27;106025;-64
2022/01/17 16:11:50;;;;;;;5.38;2.00;;;;;;;0.89;56.03;100579.19;5028012;27;106137;-62
2022/01/17 16:14:15;;;;;;;4.82;1.80;;;;;;;0.86;56.18;100597.72;5027440;27;106272;-67
